Time;durP1;ratioP1;P1;durP2;ratioP2;P2;SDS_P1;SDS_P2;PMS_P1;PMS_P2;Temp;Humidity;BMP_temperature;BMP_pressure;BME280_temperature;BME280_humidity;BME280_pressure;Samples;Min_cycle;Max_cycle;Signal;HPM_P1;HPM_P2
2022/11/16 00:00:37;;;;;;;186.17;56.70;;;5.20;99.90;;;;;;5185454;28;20223;-48
2022/11/16 00:03:07;;;;;;;199.63;60.43;;;5.20;99.90;;;;;;5164935;28;20448;-45
2022/11/16 00:05:38;;;;;;;186.97;60.70;;;5.20;99.90;;;;;;5181116;28;20592;-47
2022/11/16 00:08:09;;;;;;;174.93;56.70;;;5.20;99.90;;;;;;5181030;28;20177;-52
2022/11/16 00:10:40;;;;;;;170.30;58.70;;;5.10;99.90;;;;;;5182713;28;20205;-48
2022/11/16 00:13:10;;;;;;;174.80;54.73;;;5.10;99.90;;;;;;5186279;28;20193;-46
2022/11/16 00:15:41;;;;;;;145.80;53.27;;;5.10;99.90;;;;;;5187079;28;20206;-46
2022/11/16 00:18:12;;;;;;;165.27;54.70;;;5.10;99.90;;;;;;5183916;28;20636;-49
2022/11/16 00:20:42;;;;;;;172.83;55.70;;;5.00;99.90;;;;;;5181857;28;20218;-46
2022/11/16 00:23:13;;;;;;;164.67;55.50;;;5.10;99.90;;;;;;5187820;28;20174;-46
2022/11/16 00:25:44;;;;;;;152.60;53.67;;;5.00;99.90;;;;;;5190141;28;20222;-51
2022/11/16 00:28:16;;;;;;;152.77;53.00;;;5.10;99.90;;;;;;5184531;28;20188;-45
2022/11/16 00:30:46;;;;;;;169.67;55.90;;;5.10;99.90;;;;;;5181097;28;20487;-49
2022/11/16 00:33:17;;;;;;;150.83;50.53;;;5.00;99.90;;;;;;5191058;28;20811;-50
2022/11/16 00:35:48;;;;;;;153.43;50.70;;;5.00;99.90;;;;;;5174410;28;20201;-45
2022/11/16 00:38:18;;;;;;;156.43;51.37;;;5.00;99.90;;;;;;5187362;28;20218;-46
2022/11/16 00:40:49;;;;;;;152.90;49.83;;;4.90;99.90;;;;;;5183508;28;20285;-49
2022/11/16 00:43:20;;;;;;;168.57;51.80;;;4.90;99.90;;;;;;5190991;28;20238;-46
2022/11/16 00:45:50;;;;;;;157.00;52.00;;;5.00;99.90;;;;;;5189569;28;20663;-46
2022/11/16 00:48:21;;;;;;;142.73;47.67;;;5.00;99.90;;;;;;5182801;28;20319;-46
2022/11/16 00:50:52;;;;;;;142.23;50.73;;;5.00;99.90;;;;;;5180851;28;20577;-46
2022/11/16 00:53:23;;;;;;;129.30;47.23;;;5.00;99.90;;;;;;5186675;28;20180;-46
2022/11/16 00:55:53;;;;;;;134.23;48.67;;;4.90;99.90;;;;;;5189487;28;20206;-46
2022/11/16 00:58:24;;;;;;;145.23;50.07;;;4.90;99.90;;;;;;5190225;28;20526;-46
2022/11/16 01:00:55;;;;;;;141.33;47.90;;;4.90;99.90;;;;;;5183817;28;20192;-45
2022/11/16 01:03:25;;;;;;;146.90;52.43;;;4.90;99.90;;;;;;5189348;28;20191;-47
2022/11/16 01:06:10;;;;;;;173.73;51.70;;;4.90;99.90;;;;;;5189230;28;20209;-49
2022/11/16 01:08:42;;;;;;;142.37;52.83;;;4.80;99.90;;;;;;5189702;28;20199;-48
2022/11/16 01:14:06;;;;;;;145.53;51.97;;;4.80;99.90;;;;;;5186975;28;20466;-45
2022/11/16 01:16:37;;;;;;;156.50;52.27;;;4.90;99.90;;;;;;5186227;28;20965;-48
2022/11/16 01:19:08;;;;;;;157.97;53.50;;;4.80;99.90;;;;;;5177887;28;20443;-46
2022/11/16 01:21:39;;;;;;;155.20;52.30;;;4.90;99.90;;;;;;5187688;28;20584;-48
2022/11/16 01:24:09;;;;;;;168.20;54.33;;;4.80;99.90;;;;;;5186960;28;20197;-46
2022/11/16 01:26:40;;;;;;;148.20;52.73;;;4.90;99.90;;;;;;5179835;28;20183;-48
2022/11/16 01:29:11;;;;;;;150.60;49.70;;;5.00;99.90;;;;;;5185408;28;20691;-46
2022/11/16 01:31:42;;;;;;;150.37;50.63;;;4.90;99.90;;;;;;5182793;28;20215;-45
2022/11/16 01:34:12;;;;;;;162.33;50.10;;;4.90;99.90;;;;;;5187723;28;20185;-46
2022/11/16 01:36:43;;;;;;;142.03;52.67;;;4.90;99.90;;;;;;5185177;28;20260;-46
2022/11/16 01:39:15;;;;;;;142.13;49.63;;;4.90;99.90;;;;;;5184347;28;20184;-50
2022/11/16 01:41:46;;;;;;;166.63;52.53;;;4.90;99.90;;;;;;5185107;28;20281;-46
2022/11/16 01:44:32;;;;;;;130.40;50.23;;;4.90;99.90;;;;;;5182833;28;20563;-45
2022/11/16 01:47:08;;;;;;;155.27;50.30;;;4.90;99.90;;;;;;5183057;28;20180;-47
2022/11/16 01:49:46;;;;;;;154.67;50.00;;;4.90;99.90;;;;;;5182361;28;20424;-47
2022/11/16 01:52:21;;;;;;;133.77;47.23;;;5.00;99.90;;;;;;5179601;28;20845;-47
2022/11/16 01:54:54;;;;;;;145.07;50.50;;;5.00;99.90;;;;;;5188006;28;20442;-46
2022/11/16 01:57:33;;;;;;;124.00;48.23;;;5.00;99.90;;;;;;5187403;28;20440;-46
2022/11/16 02:00:08;;;;;;;133.53;48.57;;;5.00;99.90;;;;;;5184524;28;20808;-49
2022/11/16 02:02:39;;;;;;;138.37;50.40;;;5.00;99.90;;;;;;5180737;28;20432;-46
2022/11/16 02:05:14;;;;;;;141.20;46.70;;;5.00;99.90;;;;;;5188388;28;20922;-46
2022/11/16 02:11:36;;;;;;;133.20;46.37;;;4.90;99.90;;;;;;5182976;28;20437;-48
2022/11/16 02:14:24;;;;;;;127.43;45.63;;;5.00;99.90;;;;;;5190463;28;20436;-48
2022/11/16 02:17:19;;;;;;;131.40;44.23;;;4.90;99.90;;;;;;5181397;28;20970;-45
2022/11/16 02:20:24;;;;;;;130.00;46.53;;;4.90;99.90;;;;;;5187521;28;20412;-45
2022/11/16 02:23:32;;;;;;;139.30;45.40;;;4.90;99.90;;;;;;5187043;28;20420;-47
2022/11/16 02:26:09;;;;;;;129.50;47.40;;;4.90;99.90;;;;;;5197826;28;20439;-45
2022/11/16 02:28:51;;;;;;;147.80;46.93;;;4.90;99.90;;;;;;5186686;28;20436;-46
2022/11/16 02:31:33;;;;;;;131.10;44.83;;;4.90;99.90;;;;;;5185951;28;20453;-47
2022/11/16 02:34:07;;;;;;;139.30;48.47;;;4.90;99.90;;;;;;5172235;28;20440;-45
2022/11/16 02:36:41;;;;;;;156.83;50.33;;;4.90;99.90;;;;;;5186644;28;20468;-46
2022/11/16 02:39:16;;;;;;;133.07;47.90;;;4.90;99.90;;;;;;5184988;28;20428;-46
2022/11/16 02:41:49;;;;;;;149.47;48.57;;;4.90;99.90;;;;;;5181259;28;20456;-49
2022/11/16 02:44:34;;;;;;;169.53;50.43;;;4.80;99.90;;;;;;5184999;28;20514;-45
2022/11/16 02:47:11;;;;;;;151.60;51.53;;;4.90;99.90;;;;;;5185707;28;20932;-46
2022/11/16 02:49:46;;;;;;;168.03;52.40;;;4.80;99.90;;;;;;5168929;28;20436;-46
2022/11/16 02:52:17;;;;;;;181.10;51.70;;;4.80;99.90;;;;;;5175250;28;20565;-46
2022/11/16 02:54:48;;;;;;;181.70;56.20;;;4.80;99.90;;;;;;5186153;28;20951;-46
2022/11/16 02:57:40;;;;;;;197.53;56.10;;;4.70;99.90;;;;;;5186432;28;20497;-46
2022/11/16 03:00:26;;;;;;;167.37;55.23;;;4.80;99.90;;;;;;5185698;28;20275;-45
2022/11/16 03:03:25;;;;;;;191.50;55.27;;;4.80;99.90;;;;;;5186983;28;20433;-45
2022/11/16 03:06:02;;;;;;;186.43;60.60;;;4.80;99.90;;;;;;5192368;28;20435;-47
2022/11/16 03:08:36;;;;;;;181.40;55.90;;;4.80;99.90;;;;;;5175616;28;20787;-46
2022/11/16 03:14:06;;;;;;;190.40;56.27;;;4.80;99.90;;;;;;5182226;28;20425;-46
2022/11/16 03:16:43;;;;;;;195.53;57.10;;;4.80;99.90;;;;;;5186982;28;20474;-46
2022/11/16 03:19:20;;;;;;;200.50;56.60;;;4.80;99.90;;;;;;5175274;28;20547;-46
2022/11/16 03:21:58;;;;;;;195.43;57.50;;;4.70;99.90;;;;;;5183346;28;20484;-46
2022/11/16 03:24:30;;;;;;;187.70;56.60;;;4.70;99.90;;;;;;5182821;28;20814;-47
2022/11/16 03:27:36;;;;;;;171.10;56.77;;;4.80;99.90;;;;;;5183918;28;20450;-46
2022/11/16 03:30:19;;;;;;;177.90;55.50;;;4.80;99.90;;;;;;5183275;28;20532;-47
2022/11/16 03:33:00;;;;;;;170.63;54.60;;;4.70;99.90;;;;;;5175767;28;20978;-46
2022/11/16 03:35:57;;;;;;;180.23;55.03;;;4.80;99.90;;;;;;5185712;28;20464;-47
2022/11/16 03:38:30;;;;;;;195.07;57.43;;;4.80;99.90;;;;;;5186039;28;20914;-51
2022/11/16 03:41:05;;;;;;;181.40;59.30;;;4.80;99.90;;;;;;5183234;28;20473;-47
2022/11/16 03:43:38;;;;;;;165.57;58.70;;;4.80;99.90;;;;;;5178132;28;20440;-46
2022/11/16 03:46:08;;;;;;;177.50;61.80;;;4.80;99.90;;;;;;5176800;28;20462;-49
2022/11/16 03:48:41;;;;;;;182.20;60.40;;;4.80;99.90;;;;;;5187676;28;20861;-47
2022/11/16 03:51:12;;;;;;;186.50;59.80;;;4.80;99.90;;;;;;5186518;28;20228;-46
2022/11/16 03:53:42;;;;;;;198.80;61.57;;;4.80;99.90;;;;;;5185993;28;20531;-45
2022/11/16 03:56:13;;;;;;;184.90;63.17;;;4.80;99.90;;;;;;5185094;28;20504;-47
2022/11/16 03:58:44;;;;;;;190.03;62.40;;;4.80;99.90;;;;;;5181208;28;20279;-47
2022/11/16 04:01:15;;;;;;;201.67;66.70;;;4.80;99.90;;;;;;5191583;28;20206;-47
2022/11/16 04:03:45;;;;;;;225.80;68.73;;;4.90;99.90;;;;;;5190913;28;20617;-46
2022/11/16 04:25:59;;;;;;;213.87;65.67;;;5.00;99.90;;;;;;5187917;28;20954;-51
2022/11/16 04:28:32;;;;;;;251.63;71.77;;;5.00;99.90;;;;;;5179431;28;20526;-50
2022/11/16 04:39:39;;;;;;;246.17;66.70;;;5.10;99.90;;;;;;5181965;28;20451;-51
2022/11/16 04:42:18;;;;;;;237.40;65.50;;;5.10;99.90;;;;;;5182106;28;20453;-51
2022/11/16 04:47:38;;;;;;;236.50;66.23;;;5.10;99.90;;;;;;5182701;28;20424;-51
2022/11/16 04:50:09;;;;;;;249.10;66.87;;;5.10;99.90;;;;;;5174060;28;20421;-50
2022/11/16 04:52:39;;;;;;;246.93;69.27;;;5.20;99.90;;;;;;5185859;28;20641;-51
2022/11/16 04:55:11;;;;;;;272.90;65.67;;;5.20;99.90;;;;;;5177352;28;20209;-51
2022/11/16 04:57:41;;;;;;;249.67;66.37;;;5.20;99.90;;;;;;5181272;28;20626;-52
2022/11/16 05:00:12;;;;;;;267.10;66.63;;;5.20;99.90;;;;;;5184023;28;20445;-50
2022/11/16 05:02:43;;;;;;;252.07;65.43;;;5.30;99.90;;;;;;5184415;28;20182;-51
2022/11/16 05:05:14;;;;;;;264.10;66.60;;;5.30;99.90;;;;;;5177821;28;20775;-50
2022/11/16 05:07:45;;;;;;;252.30;64.37;;;5.30;99.90;;;;;;5186464;28;20263;-51
2022/11/16 05:10:16;;;;;;;239.90;66.10;;;5.30;99.90;;;;;;5186554;28;20221;-51
2022/11/16 05:12:46;;;;;;;243.60;65.07;;;5.40;99.90;;;;;;5178941;28;20596;-50
2022/11/16 05:15:18;;;;;;;272.70;65.00;;;5.40;99.90;;;;;;5186381;28;20197;-52
2022/11/16 05:17:50;;;;;;;258.13;67.30;;;5.40;99.90;;;;;;5183859;28;20591;-50
2022/11/16 05:24:32;;;;;;;231.20;62.83;;;5.40;99.90;;;;;;5178134;28;20635;-51
2022/11/16 05:26:00;;;;;;;233.07;62.60;;;5.40;99.90;;;;;;5181032;28;20918;-53
2022/11/16 05:28:31;;;;;;;222.13;62.20;;;5.50;99.90;;;;;;5185208;28;20445;-53
2022/11/16 05:31:01;;;;;;;222.37;61.80;;;5.50;99.90;;;;;;5182997;28;20211;-50
2022/11/16 05:33:32;;;;;;;216.13;59.83;;;5.50;99.90;;;;;;5183316;28;20554;-51
2022/11/16 05:36:03;;;;;;;235.97;59.87;;;5.60;99.90;;;;;;5181892;28;20206;-52
2022/11/16 05:38:33;;;;;;;226.10;59.00;;;5.60;99.90;;;;;;5186217;28;20190;-51
2022/11/16 05:41:04;;;;;;;225.30;58.53;;;5.60;99.90;;;;;;5176930;28;20260;-50
2022/11/16 05:43:35;;;;;;;197.30;55.53;;;5.60;99.90;;;;;;5175846;28;20201;-52
2022/11/16 05:46:05;;;;;;;215.83;58.33;;;5.60;99.90;;;;;;5174536;28;20192;-51
2022/11/16 05:48:36;;;;;;;182.63;55.30;;;5.60;99.90;;;;;;5184068;28;20204;-50
2022/11/16 05:51:07;;;;;;;212.50;54.10;;;5.70;99.90;;;;;;5184563;28;20207;-48
2022/11/16 05:53:37;;;;;;;221.63;57.60;;;5.60;99.90;;;;;;5171492;28;20591;-52
2022/11/16 05:56:08;;;;;;;195.83;55.83;;;5.70;99.90;;;;;;5173609;28;20219;-51
2022/11/16 05:58:39;;;;;;;192.60;55.23;;;5.70;99.90;;;;;;5186762;28;20215;-52
2022/11/16 06:01:10;;;;;;;211.33;56.13;;;5.70;99.90;;;;;;5182483;28;20869;-51
2022/11/16 06:03:40;;;;;;;217.53;57.73;;;5.70;99.90;;;;;;5167461;28;20192;-51
2022/11/16 06:06:12;;;;;;;186.23;52.87;;;5.80;99.90;;;;;;5180826;28;20188;-53
2022/11/16 06:08:42;;;;;;;208.27;57.57;;;5.80;99.90;;;;;;5184545;28;20202;-50
2022/11/16 06:11:13;;;;;;;186.70;56.23;;;5.80;99.90;;;;;;5172935;28;20450;-49
2022/11/16 06:13:43;;;;;;;202.83;55.23;;;5.80;99.90;;;;;;5184803;28;20550;-51
2022/11/16 06:16:14;;;;;;;220.03;60.37;;;5.80;99.90;;;;;;5183033;28;20212;-51
2022/11/16 06:18:46;;;;;;;217.23;59.23;;;5.80;99.90;;;;;;5179766;28;20618;-51
2022/11/16 06:21:18;;;;;;;207.00;56.53;;;5.80;99.90;;;;;;5171108;28;20207;-50
2022/11/16 06:23:49;;;;;;;209.07;56.20;;;5.80;99.90;;;;;;5176961;28;20426;-51
2022/11/16 06:26:19;;;;;;;201.33;59.30;;;5.70;99.90;;;;;;5185253;28;20445;-52
2022/11/16 06:28:50;;;;;;;213.57;56.97;;;5.80;99.90;;;;;;5174590;28;20679;-50
2022/11/16 06:31:21;;;;;;;203.10;55.87;;;5.80;99.90;;;;;;5180190;28;20209;-51
2022/11/16 06:33:51;;;;;;;200.23;55.13;;;5.80;99.90;;;;;;5183443;28;20209;-50
2022/11/16 06:36:22;;;;;;;236.43;59.00;;;5.80;99.90;;;;;;5179807;28;20469;-50
2022/11/16 06:38:53;;;;;;;236.73;58.20;;;5.70;99.90;;;;;;5184044;28;20262;-53
2022/11/16 06:41:24;;;;;;;214.67;58.63;;;5.80;99.90;;;;;;5180563;28;20768;-51
2022/11/16 06:43:55;;;;;;;223.27;59.00;;;5.80;99.90;;;;;;5184055;28;20636;-52
2022/11/16 06:46:26;;;;;;;207.10;58.90;;;5.80;99.90;;;;;;5174185;28;20456;-53
2022/11/16 06:48:56;;;;;;;214.17;57.37;;;5.80;99.90;;;;;;5179100;28;20194;-53
2022/11/16 06:51:27;;;;;;;211.73;54.50;;;5.80;99.90;;;;;;5182658;28;20214;-52
2022/11/16 06:53:58;;;;;;;223.80;57.67;;;5.80;99.90;;;;;;5184245;28;20198;-52
2022/11/16 06:56:28;;;;;;;231.77;56.30;;;5.90;99.90;;;;;;5177766;28;20224;-52
2022/11/16 06:58:59;;;;;;;214.20;57.57;;;5.80;99.90;;;;;;5177808;28;20753;-52
2022/11/16 07:01:30;;;;;;;231.10;56.27;;;5.80;99.90;;;;;;5178829;28;20203;-47
2022/11/16 07:04:00;;;;;;;204.43;56.33;;;5.90;99.90;;;;;;5177104;28;20194;-46
2022/11/16 07:06:31;;;;;;;219.07;59.00;;;5.80;99.90;;;;;;5181332;28;20218;-47
2022/11/16 07:09:05;;;;;;;203.30;61.07;;;5.80;99.90;;;;;;5184594;28;20647;-46
2022/11/16 07:11:36;;;;;;;214.57;56.20;;;5.80;99.90;;;;;;5184966;28;20264;-47
2022/11/16 07:14:06;;;;;;;211.97;59.50;;;5.80;99.90;;;;;;5185546;28;20442;-47
2022/11/16 07:16:37;;;;;;;201.23;59.47;;;5.90;99.90;;;;;;5186765;28;20956;-47
2022/11/16 07:19:08;;;;;;;195.50;59.67;;;5.90;99.90;;;;;;5177902;28;20191;-46
2022/11/16 07:21:39;;;;;;;207.23;56.97;;;5.80;99.90;;;;;;5165131;28;20304;-49
2022/11/16 07:24:10;;;;;;;239.80;61.63;;;5.80;99.90;;;;;;5180544;28;20533;-47
2022/11/16 07:26:40;;;;;;;248.23;60.77;;;5.90;99.90;;;;;;5188229;28;20198;-47
2022/11/16 07:29:12;;;;;;;218.43;58.87;;;5.90;99.90;;;;;;5175073;28;20205;-47
2022/11/16 07:31:43;;;;;;;210.67;58.23;;;5.90;99.90;;;;;;5177929;28;20313;-47
2022/11/16 07:34:13;;;;;;;237.50;58.70;;;5.90;99.90;;;;;;5186397;28;20533;-48
2022/11/16 07:36:44;;;;;;;243.20;61.63;;;5.90;99.90;;;;;;5180231;28;20238;-48
2022/11/16 07:39:15;;;;;;;237.90;59.40;;;5.90;99.90;;;;;;5169109;28;20184;-46
2022/11/16 07:41:45;;;;;;;226.10;57.70;;;5.90;99.90;;;;;;5178113;28;20221;-48
2022/11/16 07:44:16;;;;;;;212.83;55.17;;;5.90;99.90;;;;;;5179386;28;20536;-47
2022/11/16 07:46:47;;;;;;;212.00;57.67;;;5.90;99.90;;;;;;5184818;28;20199;-47
2022/11/16 07:49:18;;;;;;;210.80;56.63;;;5.90;99.90;;;;;;5189471;28;20244;-46
2022/11/16 07:51:49;;;;;;;190.37;54.47;;;5.90;99.90;;;;;;5180157;28;20212;-49
2022/11/16 07:54:20;;;;;;;200.03;56.53;;;5.90;99.90;;;;;;5169623;28;20844;-50
2022/11/16 07:56:51;;;;;;;206.70;58.20;;;5.90;99.90;;;;;;5181937;28;20218;-49
2022/11/16 07:59:21;;;;;;;208.93;57.93;;;5.90;99.90;;;;;;5183730;28;20529;-49
2022/11/16 08:01:54;;;;;;;214.90;59.20;;;6.00;99.90;;;;;;5175064;28;20313;-49
2022/11/16 08:04:24;;;;;;;199.73;57.47;;;6.00;99.90;;;;;;5174727;28;20187;-51
2022/11/16 08:06:55;;;;;;;214.23;55.13;;;5.90;99.90;;;;;;5167115;28;20457;-50
2022/11/16 08:09:25;;;;;;;189.27;54.50;;;6.00;99.90;;;;;;5183033;28;20192;-48
2022/11/16 08:11:56;;;;;;;201.77;53.43;;;5.90;99.90;;;;;;5186202;28;20238;-49
2022/11/16 08:14:27;;;;;;;203.70;55.00;;;6.00;99.90;;;;;;5183156;28;20196;-48
2022/11/16 08:16:57;;;;;;;165.77;48.27;;;6.00;99.90;;;;;;5181572;28;20238;-49
2022/11/16 08:19:29;;;;;;;196.40;49.60;;;6.00;99.90;;;;;;5184173;28;20555;-50
2022/11/16 08:21:59;;;;;;;170.80;50.60;;;5.90;99.90;;;;;;5178103;28;20308;-48
2022/11/16 08:24:30;;;;;;;164.83;50.70;;;6.00;99.90;;;;;;5184009;28;20529;-48
2022/11/16 08:27:00;;;;;;;164.40;49.70;;;6.00;99.90;;;;;;5184759;28;20192;-50
2022/11/16 08:29:31;;;;;;;171.83;47.03;;;6.00;99.90;;;;;;5172231;28;20194;-48
2022/11/16 08:32:02;;;;;;;171.57;46.03;;;6.00;99.90;;;;;;5183321;28;20210;-49
2022/11/16 08:34:33;;;;;;;157.87;46.23;;;6.00;99.90;;;;;;5184659;28;20537;-47
2022/11/16 08:37:03;;;;;;;147.37;46.20;;;5.90;99.90;;;;;;5183947;28;20215;-49
2022/11/16 08:39:34;;;;;;;158.27;44.40;;;6.00;99.90;;;;;;5180452;28;20188;-47
2022/11/16 08:42:05;;;;;;;150.90;41.50;;;6.00;99.90;;;;;;5182301;28;20691;-50
2022/11/16 08:44:36;;;;;;;137.17;43.27;;;6.00;99.90;;;;;;5179518;28;20192;-50
2022/11/16 08:47:06;;;;;;;143.00;42.60;;;6.00;99.90;;;;;;5178445;28;20865;-48
2022/11/16 08:49:37;;;;;;;150.30;41.60;;;6.10;99.90;;;;;;5181913;28;20214;-48
2022/11/16 08:52:07;;;;;;;136.07;41.13;;;6.10;99.90;;;;;;5183819;28;20209;-49
2022/11/16 08:54:40;;;;;;;137.30;40.00;;;6.00;99.90;;;;;;5185655;28;20674;-48
2022/11/16 08:57:10;;;;;;;125.37;37.37;;;6.00;99.90;;;;;;5183383;28;20681;-50
2022/11/16 08:59:41;;;;;;;114.60;37.37;;;6.00;99.90;;;;;;5182825;28;20513;-49
2022/11/16 09:02:12;;;;;;;124.60;39.60;;;6.00;99.90;;;;;;5179577;28;20547;-49
2022/11/16 09:04:42;;;;;;;130.63;39.20;;;6.00;99.90;;;;;;5181823;28;20689;-50
2022/11/16 09:07:13;;;;;;;117.97;38.43;;;6.10;99.90;;;;;;5180004;28;20311;-51
2022/11/16 09:09:43;;;;;;;104.20;34.97;;;6.10;99.90;;;;;;5182518;28;20188;-48
2022/11/16 09:12:14;;;;;;;107.70;35.63;;;6.10;99.90;;;;;;5185326;28;20196;-48
2022/11/16 09:14:45;;;;;;;112.33;37.80;;;6.10;99.90;;;;;;5166574;28;20187;-49
2022/11/16 09:17:16;;;;;;;104.90;32.90;;;6.10;99.90;;;;;;5184973;28;20708;-48
2022/11/16 09:19:46;;;;;;;82.70;29.00;;;6.10;99.90;;;;;;5186913;28;20191;-50
2022/11/16 09:22:17;;;;;;;91.53;30.10;;;6.10;99.90;;;;;;5180391;28;20259;-49
2022/11/16 09:24:48;;;;;;;82.07;25.50;;;6.10;99.90;;;;;;5187726;28;20271;-48
2022/11/16 09:27:18;;;;;;;82.30;27.03;;;6.10;99.90;;;;;;5187403;28;20204;-49
2022/11/16 09:29:49;;;;;;;71.97;28.43;;;6.10;99.90;;;;;;5177451;28;20193;-47
2022/11/16 09:32:20;;;;;;;64.63;26.50;;;6.10;99.90;;;;;;5180580;28;20230;-48
2022/11/16 09:34:50;;;;;;;70.17;23.70;;;6.20;99.90;;;;;;5186951;28;20442;-47
2022/11/16 09:37:21;;;;;;;57.07;23.80;;;6.10;99.90;;;;;;5183520;28;20222;-47
2022/11/16 09:39:52;;;;;;;60.40;22.20;;;6.10;99.90;;;;;;5177168;28;20551;-48
2022/11/16 09:42:44;;;;;;;56.63;23.37;;;6.10;99.90;;;;;;5169605;28;20199;-49
2022/11/16 09:45:19;;;;;;;64.83;22.53;;;6.20;99.90;;;;;;5184823;28;20758;-49
2022/11/16 09:47:53;;;;;;;53.17;22.77;;;6.10;99.90;;;;;;5175789;28;20414;-48
2022/11/16 09:50:48;;;;;;;58.97;22.10;;;6.00;99.90;;;;;;5180318;28;20438;-49
2022/11/16 09:53:36;;;;;;;63.00;24.00;;;6.10;99.90;;;;;;5182121;28;20489;-49
2022/11/16 09:56:17;;;;;;;58.93;25.23;;;6.00;99.90;;;;;;5184103;28;20474;-48
2022/11/16 09:59:21;;;;;;;66.27;25.17;;;6.10;99.90;;;;;;5177577;28;20748;-53
2022/11/16 10:02:13;;;;;;;59.93;25.40;;;6.10;99.90;;;;;;5177792;28;20782;-49
2022/11/16 10:05:27;;;;;;;85.87;26.90;;;6.00;99.90;;;;;;5177537;28;20436;-49
2022/11/16 10:08:15;;;;;;;65.90;25.50;;;6.00;99.90;;;;;;5185498;28;20437;-48
2022/11/16 10:10:53;;;;;;;54.77;25.97;;;6.00;99.90;;;;;;5182110;28;20465;-51
2022/11/16 10:13:51;;;;;;;68.40;28.10;;;6.00;99.90;;;;;;5170839;28;20447;-50
2022/11/16 10:16:32;;;;;;;62.40;27.17;;;6.00;99.90;;;;;;5185094;28;20496;-49
2022/11/16 10:19:20;;;;;;;60.93;26.37;;;6.00;99.90;;;;;;5183274;28;20517;-49
2022/11/16 10:22:08;;;;;;;62.20;26.87;;;6.00;99.90;;;;;;5182811;28;20478;-49
2022/11/16 10:24:44;;;;;;;78.43;28.00;;;6.00;99.90;;;;;;5175679;28;20534;-49
2022/11/16 10:27:22;;;;;;;63.30;27.00;;;6.00;99.90;;;;;;5182827;28;20422;-50
2022/11/16 10:30:09;;;;;;;58.00;25.37;;;6.00;99.90;;;;;;5176868;28;20538;-49
2022/11/16 10:33:03;;;;;;;86.60;28.03;;;5.90;99.90;;;;;;5184213;28;20481;-50
2022/11/16 10:35:37;;;;;;;77.83;29.13;;;5.90;99.90;;;;;;5184015;28;20521;-49
2022/11/16 10:38:17;;;;;;;71.23;29.67;;;5.90;99.90;;;;;;5184850;28;20476;-49
2022/11/16 10:41:02;;;;;;;57.70;27.40;;;5.90;99.90;;;;;;5183406;28;20462;-48
2022/11/16 10:43:32;;;;;;;66.00;28.00;;;5.90;99.90;;;;;;5176274;28;20449;-49
2022/11/16 10:46:19;;;;;;;65.57;30.30;;;6.00;99.90;;;;;;5182343;28;20434;-49
2022/11/16 10:49:33;;;;;;;68.10;29.73;;;6.00;99.90;;;;;;5171726;28;20681;-49
2022/11/16 10:52:03;;;;;;;68.97;28.90;;;5.90;99.90;;;;;;5169048;28;20465;-49
2022/11/16 10:54:34;;;;;;;75.93;31.00;;;5.90;99.90;;;;;;5183710;28;20945;-48
2022/11/16 10:57:12;;;;;;;71.20;29.80;;;6.00;99.90;;;;;;5184413;28;20214;-48
2022/11/16 10:59:45;;;;;;;69.50;28.57;;;6.00;99.90;;;;;;5181968;28;20730;-48
2022/11/16 11:02:33;;;;;;;59.70;29.40;;;6.00;99.90;;;;;;5178639;28;20456;-49
2022/11/16 11:05:06;;;;;;;63.47;27.80;;;6.00;99.90;;;;;;5179225;28;20474;-49
2022/11/16 11:07:38;;;;;;;62.80;29.50;;;6.00;99.90;;;;;;5170098;28;20517;-49
2022/11/16 11:10:29;;;;;;;65.90;28.83;;;6.00;99.90;;;;;;5181955;28;20786;-50
2022/11/16 11:13:25;;;;;;;66.37;27.90;;;6.00;99.90;;;;;;5180160;28;20429;-50
2022/11/16 11:16:16;;;;;;;66.93;27.90;;;6.00;99.90;;;;;;5178118;28;20473;-48
2022/11/16 11:18:47;;;;;;;64.27;26.33;;;6.10;99.90;;;;;;5183615;28;20894;-49
2022/11/16 11:21:27;;;;;;;58.37;28.40;;;6.10;99.90;;;;;;5182423;28;20468;-49
2022/11/16 11:24:04;;;;;;;58.60;29.03;;;6.10;99.90;;;;;;5181065;28;20192;-49
2022/11/16 11:26:39;;;;;;;71.77;30.57;;;6.20;99.90;;;;;;5176050;28;20437;-50
2022/11/16 11:29:24;;;;;;;71.40;30.00;;;6.10;99.90;;;;;;5183279;28;20433;-50
2022/11/16 11:32:11;;;;;;;74.83;32.47;;;6.10;99.90;;;;;;5180868;28;20466;-50
2022/11/16 11:34:46;;;;;;;63.93;31.10;;;6.10;99.90;;;;;;5184288;28;20456;-48
2022/11/16 11:37:30;;;;;;;69.50;31.90;;;6.10;99.90;;;;;;5183201;28;20456;-50
2022/11/16 11:40:18;;;;;;;76.63;31.80;;;6.10;99.90;;;;;;5180342;28;20538;-49
2022/11/16 11:42:58;;;;;;;61.53;30.70;;;6.20;99.90;;;;;;5178204;28;20421;-51
2022/11/16 11:45:41;;;;;;;84.00;32.60;;;6.10;99.90;;;;;;5181296;28;20495;-49
2022/11/16 11:48:30;;;;;;;60.10;30.30;;;6.10;99.90;;;;;;5182202;28;20905;-50
2022/11/16 11:51:14;;;;;;;66.13;29.67;;;6.10;99.90;;;;;;5182656;28;20511;-50
2022/11/16 11:53:55;;;;;;;60.37;27.40;;;6.20;99.90;;;;;;5167935;28;20473;-49
2022/11/16 11:56:29;;;;;;;52.80;26.17;;;6.10;99.90;;;;;;5174012;28;20767;-49
2022/11/16 11:59:03;;;;;;;63.17;30.60;;;6.20;99.90;;;;;;5178866;28;20440;-47
2022/11/16 12:01:55;;;;;;;67.80;28.37;;;6.20;99.90;;;;;;5182775;28;20457;-48
2022/11/16 12:04:39;;;;;;;65.77;27.97;;;6.10;99.90;;;;;;5173839;28;20438;-48
2022/11/16 12:07:21;;;;;;;77.77;29.33;;;6.20;99.90;;;;;;5180982;28;20773;-49
2022/11/16 12:10:17;;;;;;;61.80;28.00;;;6.20;99.90;;;;;;5179316;28;20934;-51
2022/11/16 12:13:13;;;;;;;62.57;27.57;;;6.20;99.90;;;;;;5181375;28;20779;-50
2022/11/16 12:16:10;;;;;;;58.37;26.80;;;6.30;99.90;;;;;;5175478;28;20462;-48
2022/11/16 12:19:10;;;;;;;58.03;27.20;;;6.30;99.90;;;;;;5186831;28;20421;-51
2022/11/16 12:22:10;;;;;;;58.90;26.60;;;6.30;99.90;;;;;;5167508;28;20467;-52
2022/11/16 12:25:04;;;;;;;63.50;28.10;;;6.30;99.90;;;;;;5178364;28;20484;-50
2022/11/16 12:27:47;;;;;;;61.33;26.93;;;6.30;99.90;;;;;;5188458;28;20572;-49
2022/11/16 12:30:20;;;;;;;51.50;25.57;;;6.30;99.90;;;;;;5182758;28;20784;-49
2022/11/16 12:33:21;;;;;;;51.37;25.40;;;6.30;99.90;;;;;;5185037;28;20796;-49
2022/11/16 12:36:16;;;;;;;51.67;26.77;;;6.40;99.90;;;;;;5186504;28;20549;-50
2022/11/16 12:38:59;;;;;;;55.53;27.67;;;6.40;99.90;;;;;;5184285;28;20430;-49
2022/11/16 12:41:43;;;;;;;50.37;27.00;;;6.40;99.90;;;;;;5183494;28;20585;-49
2022/11/16 12:44:30;;;;;;;56.33;26.63;;;6.40;99.90;;;;;;5185975;28;20520;-49
2022/11/16 12:47:10;;;;;;;47.00;23.10;;;6.40;99.90;;;;;;5184954;28;20439;-49
2022/11/16 12:50:07;;;;;;;43.80;24.20;;;6.40;99.90;;;;;;5189299;28;20440;-48
2022/11/16 12:53:03;;;;;;;51.13;24.20;;;6.40;99.90;;;;;;5182380;28;20497;-49
2022/11/16 12:56:04;;;;;;;45.70;24.30;;;6.40;99.90;;;;;;5173021;28;20459;-49
2022/11/16 12:59:04;;;;;;;45.63;24.63;;;6.40;99.90;;;;;;5179933;28;20428;-47
2022/11/16 13:01:50;;;;;;;39.23;23.00;;;6.50;99.90;;;;;;5171279;28;20458;-49
2022/11/16 13:04:29;;;;;;;49.33;22.63;;;6.40;99.90;;;;;;5180795;28;20481;-51
2022/11/16 13:07:23;;;;;;;43.03;22.50;;;6.50;99.90;;;;;;5185388;28;20411;-50
2022/11/16 13:10:06;;;;;;;46.63;24.33;;;6.40;99.90;;;;;;5175002;28;20903;-52
2022/11/16 13:12:38;;;;;;;45.87;23.50;;;6.50;99.90;;;;;;5177572;28;20767;-49
2022/11/16 13:15:17;;;;;;;48.00;22.73;;;6.50;99.90;;;;;;5186065;28;20435;-49
2022/11/16 13:17:59;;;;;;;45.63;22.57;;;6.50;99.90;;;;;;5185760;28;20435;-49
2022/11/16 13:20:58;;;;;;;39.73;21.97;;;6.50;99.90;;;;;;5183658;28;20431;-49
2022/11/16 13:23:38;;;;;;;41.37;21.40;;;6.50;99.90;;;;;;5181718;28;20825;-51
2022/11/16 13:26:28;;;;;;;44.13;22.50;;;6.50;99.90;;;;;;5186359;28;20509;-51
2022/11/16 13:29:13;;;;;;;43.83;21.17;;;6.50;99.90;;;;;;5182443;28;20449;-48
2022/11/16 13:32:12;;;;;;;51.30;22.77;;;6.50;99.90;;;;;;5174892;28;20458;-49
2022/11/16 13:34:44;;;;;;;30.63;18.80;;;6.50;99.90;;;;;;5180230;28;20447;-48
2022/11/16 13:37:37;;;;;;;39.00;21.23;;;6.50;99.90;;;;;;5182606;28;20983;-49
2022/11/16 13:40:29;;;;;;;37.07;20.50;;;6.60;99.90;;;;;;5180567;28;20430;-49
2022/11/16 13:43:07;;;;;;;37.90;20.00;;;6.60;99.90;;;;;;5182184;28;20763;-51
2022/11/16 13:45:51;;;;;;;28.10;18.03;;;6.60;99.90;;;;;;5178624;28;20529;-49
2022/11/16 13:48:22;;;;;;;38.20;20.70;;;6.50;99.90;;;;;;5185334;28;20999;-50
2022/11/16 13:50:55;;;;;;;29.53;18.10;;;6.60;99.90;;;;;;5186430;28;20461;-50
2022/11/16 13:53:35;;;;;;;27.90;17.27;;;6.50;99.90;;;;;;5181357;28;20637;-50
2022/11/16 13:56:07;;;;;;;34.50;19.40;;;6.50;99.90;;;;;;5185013;28;20989;-49
2022/11/16 13:58:44;;;;;;;35.80;20.43;;;6.50;99.90;;;;;;5182070;28;20444;-48
2022/11/16 14:01:16;;;;;;;31.70;16.53;;;6.60;99.90;;;;;;5180620;28;22927;-49